Time;durP1;ratioP1;P1;durP2;ratioP2;P2;SDS_P1;SDS_P2;PMS_P1;PMS_P2;Temp;Humidity;BMP_temperature;BMP_pressure;BME280_temperature;BME280_humidity;BME280_pressure;Samples;Min_cycle;Max_cycle;Signal;HPM_P1;HPM_P2
2022/12/25 00:00:23;;;;;;;16.23;12.05;;;;;;;11.02;100.00;101444.03;2102399;28;20397;-78
2022/12/25 00:01:46;;;;;;;37.17;31.73;;;;;;;11.01;100.00;101440.47;2106305;28;20051;-77
2022/12/25 00:03:07;;;;;;;33.22;29.58;;;;;;;11.00;100.00;101443.97;2110377;28;20040;-78
2022/12/25 00:04:29;;;;;;;29.27;25.15;;;;;;;10.99;100.00;101441.28;2102644;28;20052;-78
2022/12/25 00:05:52;;;;;;;24.10;19.45;;;;;;;10.97;100.00;101443.00;2102352;28;20039;-78
2022/12/25 00:07:13;;;;;;;16.33;12.18;;;;;;;10.95;100.00;101450.00;2105465;28;20431;-78
2022/12/25 00:08:36;;;;;;;12.88;8.93;;;;;;;10.92;100.00;101450.81;2104562;28;20484;-77
2022/12/25 00:09:59;;;;;;;13.02;8.90;;;;;;;10.87;100.00;101447.16;2097357;28;20056;-78
2022/12/25 00:11:22;;;;;;;11.38;8.25;;;;;;;10.85;100.00;101459.44;2092346;28;20044;-77
2022/12/25 00:12:44;;;;;;;12.93;8.82;;;;;;;10.83;100.00;101450.56;2101467;28;20069;-77
2022/12/25 00:14:06;;;;;;;11.15;7.95;;;;;;;10.79;100.00;101441.69;2095236;28;20118;-78
2022/12/25 00:15:27;;;;;;;10.77;7.65;;;;;;;10.79;100.00;101443.44;2109180;28;20051;-78
2022/12/25 00:16:50;;;;;;;11.75;8.43;;;;;;;10.76;100.00;101441.59;2098101;28;20040;-78
2022/12/25 00:18:11;;;;;;;11.93;8.63;;;;;;;10.76;100.00;101440.72;2095375;28;20048;-77
2022/12/25 00:19:33;;;;;;;11.35;8.13;;;;;;;10.73;100.00;101440.63;2092355;28;20860;-77
2022/12/25 00:20:57;;;;;;;11.25;8.35;;;;;;;10.71;100.00;101443.22;2100669;28;20612;-77
2022/12/25 00:22:19;;;;;;;13.68;7.72;;;;;;;10.69;100.00;101444.97;2095501;28;20113;-77
2022/12/25 00:23:41;;;;;;;11.45;7.90;;;;;;;10.68;100.00;101434.34;2101064;28;20074;-78
2022/12/25 00:25:04;;;;;;;10.00;7.75;;;;;;;10.65;100.00;101439.53;2103655;28;20090;-78
2022/12/25 00:26:27;;;;;;;11.38;7.72;;;;;;;10.65;100.00;101436.91;2112077;28;20056;-77
2022/12/25 00:27:49;;;;;;;10.82;7.95;;;;;;;10.62;100.00;101437.72;2106235;28;20044;-78
2022/12/25 00:29:12;;;;;;;14.90;8.35;;;;;;;10.62;100.00;101435.09;2106280;28;20051;-77
2022/12/25 00:30:35;;;;;;;12.15;8.45;;;;;;;10.61;100.00;101432.41;2095345;28;20429;-77
2022/12/25 00:31:56;;;;;;;11.93;8.40;;;;;;;10.60;100.00;101435.88;2099619;28;20098;-77
2022/12/25 00:33:18;;;;;;;12.23;8.27;;;;;;;10.57;100.00;101431.41;2094911;28;20040;-78
2022/12/25 00:34:41;;;;;;;12.32;8.10;;;;;;;10.56;100.00;101428.75;2103596;28;20063;-77
2022/12/25 00:36:04;;;;;;;9.75;7.53;;;;;;;10.55;100.00;101438.41;2100481;28;20516;-78
2022/12/25 00:37:27;;;;;;;11.45;8.10;;;;;;;10.55;100.00;101440.16;2095296;28;20271;-78
2022/12/25 00:38:50;;;;;;;10.55;7.63;;;;;;;10.54;100.00;101435.72;2099418;28;20047;-77
2022/12/25 00:40:12;;;;;;;12.63;8.30;;;;;;;10.53;100.00;101442.75;2097178;28;20137;-77
2022/12/25 00:43:16;;;;;;;12.85;8.70;;;;;;;10.47;100.00;101434.66;2106044;28;20055;-78
2022/12/25 00:44:37;;;;;;;14.18;10.10;;;;;;;10.46;100.00;101443.44;2097725;28;20087;-77
2022/12/25 00:46:01;;;;;;;13.65;9.40;;;;;;;10.46;100.00;101437.25;2103254;28;20605;-77
2022/12/25 00:47:22;;;;;;;13.35;9.07;;;;;;;10.46;100.00;101431.97;2108097;28;20048;-77
2022/12/25 00:48:47;;;;;;;12.35;8.88;;;;;;;10.43;100.00;101431.91;2102501;28;20044;-77
2022/12/25 00:50:10;;;;;;;11.88;8.80;;;;;;;10.42;100.00;101431.03;2103347;28;20055;-78
2022/12/25 00:51:32;;;;;;;12.20;8.65;;;;;;;10.41;100.00;101430.97;2102682;28;20044;-78
2022/12/25 00:52:55;;;;;;;12.20;8.50;;;;;;;10.40;100.00;101440.63;2095709;28;20040;-78
2022/12/25 00:54:16;;;;;;;12.93;8.40;;;;;;;10.39;100.00;101452.03;2103236;28;20078;-78
2022/12/25 00:55:39;;;;;;;11.95;8.23;;;;;;;10.38;100.00;101459.06;2112811;27;20043;-78
2022/12/25 00:57:02;;;;;;;14.60;10.55;;;;;;;10.41;100.00;101460.00;2114392;28;20055;-78
2022/12/25 00:58:25;;;;;;;17.13;10.65;;;;;;;10.41;100.00;101455.63;2111978;28;20395;-77
2022/12/25 00:59:47;;;;;;;23.25;14.75;;;;;;;10.42;100.00;101453.88;2110723;28;20569;-78
2022/12/25 01:01:10;;;;;;;23.02;16.00;;;;;;;10.46;100.00;101450.47;2108285;28;20052;-77
2022/12/25 01:02:32;;;;;;;20.92;13.15;;;;;;;10.51;100.00;101451.47;2112156;28;20051;-78
2022/12/25 01:03:55;;;;;;;14.02;9.55;;;;;;;10.56;100.00;101452.50;2086584;28;20091;-78
2022/12/25 01:05:17;;;;;;;13.73;9.32;;;;;;;10.59;100.00;101453.47;2099984;28;20056;-78
2022/12/25 01:06:39;;;;;;;11.95;8.68;;;;;;;10.57;100.00;101455.16;2107361;28;20036;-78
2022/12/25 01:08:01;;;;;;;13.55;9.02;;;;;;;10.58;100.00;101458.69;2118067;27;20503;-78
2022/12/25 01:11:09;;;;;;;36.65;30.95;;;;;;;10.58;100.00;101454.31;2096809;28;20137;-78
2022/12/25 01:12:33;;;;;;;33.40;28.98;;;;;;;10.60;100.00;101454.38;2108200;28;20048;-78
2022/12/25 01:13:56;;;;;;;28.65;25.20;;;;;;;10.60;100.00;101449.09;2094975;28;20097;-78
2022/12/25 01:15:17;;;;;;;31.30;28.05;;;;;;;10.60;100.00;101457.00;2103129;28;20059;-79
2022/12/25 01:16:40;;;;;;;23.30;20.77;;;;;;;10.57;100.00;101457.81;2094963;28;20049;-77
2022/12/25 01:18:01;;;;;;;16.63;14.00;;;;;;;10.58;100.00;101458.69;2100165;28;20420;-78
2022/12/25 01:19:23;;;;;;;14.30;9.30;;;;;;;10.55;100.00;101467.47;2103170;28;20121;-77
2022/12/25 01:20:46;;;;;;;12.23;9.60;;;;;;;10.55;100.00;101458.63;2103286;28;20655;-78
2022/12/25 01:22:07;;;;;;;12.10;8.23;;;;;;;10.54;100.00;101464.78;2102998;28;20044;-77
2022/12/25 01:23:29;;;;;;;12.43;8.75;;;;;;;10.54;100.00;101456.84;2105956;28;20059;-78
2022/12/25 01:24:50;;;;;;;12.68;9.10;;;;;;;10.54;100.00;101459.50;2105770;28;20048;-78
2022/12/25 01:26:14;;;;;;;12.60;8.50;;;;;;;10.51;100.00;101460.28;2103389;28;20142;-79
2022/12/25 01:27:37;;;;;;;11.75;8.23;;;;;;;10.50;100.00;101462.91;2088918;28;20056;-78
2022/12/25 01:29:01;;;;;;;11.48;7.82;;;;;;;10.47;100.00;101463.72;2097625;28;20043;-79
2022/12/25 01:30:24;;;;;;;10.80;7.95;;;;;;;10.45;100.00;101456.59;2103640;28;20044;-78
2022/12/25 01:31:45;;;;;;;11.38;7.93;;;;;;;10.43;100.00;101464.50;2103258;28;20044;-78
2022/12/25 01:33:07;;;;;;;10.05;7.28;;;;;;;10.39;100.00;101458.22;2094592;28;20135;-79
2022/12/25 01:34:28;;;;;;;11.52;7.90;;;;;;;10.37;100.00;101457.28;2086812;28;20706;-78
2022/12/25 01:35:51;;;;;;;10.70;7.57;;;;;;;10.36;100.00;101458.16;2095752;28;20043;-78
2022/12/25 01:37:13;;;;;;;11.35;8.15;;;;;;;10.34;100.00;101458.94;2103174;28;20101;-78
2022/12/25 01:38:36;;;;;;;11.38;7.85;;;;;;;10.33;100.00;101458.06;2105884;28;20051;-77
2022/12/25 01:39:58;;;;;;;10.02;7.22;;;;;;;10.34;100.00;101454.56;2097599;28;20412;-78
2022/12/25 01:41:22;;;;;;;11.23;7.97;;;;;;;10.35;100.00;101456.34;2094674;28;20095;-78
2022/12/25 01:42:46;;;;;;;11.90;8.25;;;;;;;10.36;100.00;101460.78;2103206;28;20043;-78
2022/12/25 01:44:47;;;;;;;12.10;8.18;;;;;;;10.35;100.00;101451.06;2098849;28;20564;-78
2022/12/25 01:46:09;;;;;;;12.32;8.35;;;;;;;10.32;100.00;101445.69;2103087;28;20048;-78
2022/12/25 01:47:30;;;;;;;11.68;7.80;;;;;;;10.31;100.00;101451.81;2094356;28;20052;-78
2022/12/25 01:48:56;;;;;;;12.07;7.88;;;;;;;10.29;100.00;101448.28;2107203;28;20040;-78
2022/12/25 01:50:18;;;;;;;11.68;7.60;;;;;;;10.28;100.00;101443.84;2100587;28;20048;-78
2022/12/25 01:51:44;;;;;;;11.85;7.88;;;;;;;10.24;100.00;101439.31;2095938;28;20047;-78
2022/12/25 01:53:06;;;;;;;10.73;7.60;;;;;;;10.22;100.00;101443.69;2101541;28;20089;-78
2022/12/25 01:54:32;;;;;;;12.38;7.47;;;;;;;10.19;100.00;101433.03;2105428;28;20119;-77
2022/12/25 01:55:58;;;;;;;12.32;7.40;;;;;;;10.18;100.00;101435.59;2110690;28;20035;-77
2022/12/25 01:57:25;;;;;;;10.23;7.57;;;;;;;10.15;100.00;101435.50;2098169;28;20067;-78
2022/12/25 01:58:49;;;;;;;11.75;7.72;;;;;;;10.14;100.00;101434.59;2118307;27;20573;-78
2022/12/25 02:00:12;;;;;;;13.25;8.30;;;;;;;10.15;100.00;101430.22;2105553;28;20106;-78
2022/12/25 02:01:35;;;;;;;11.35;8.00;;;;;;;10.16;100.00;101432.91;2098719;28;20041;-78
2022/12/25 02:02:58;;;;;;;11.63;8.02;;;;;;;10.17;100.00;101428.56;2105939;28;20463;-78
2022/12/25 02:04:37;;;;;;;11.23;8.30;;;;;;;10.17;100.00;101425.94;2110296;28;20052;-78
2022/12/25 02:06:00;;;;;;;12.30;8.80;;;;;;;10.14;100.00;101426.69;2111694;28;20531;-78
2022/12/25 02:07:23;;;;;;;12.70;8.02;;;;;;;10.15;100.00;101425.84;2104012;28;20055;-78
2022/12/25 02:08:46;;;;;;;12.13;7.93;;;;;;;10.17;100.00;101429.47;2105816;28;20032;-78
2022/12/25 02:10:09;;;;;;;12.90;8.18;;;;;;;10.22;100.00;101434.88;2094544;28;20044;-78
2022/12/25 02:13:12;;;;;;;11.48;8.32;;;;;;;10.35;100.00;101437.88;2101963;28;20044;-78
2022/12/25 02:14:36;;;;;;;10.85;8.00;;;;;;;10.41;100.00;101438.91;2107507;28;20122;-78
2022/12/25 02:16:06;;;;;;;9.98;7.53;;;;;;;10.42;100.00;101430.13;2094842;28;20076;-78
2022/12/25 02:17:35;;;;;;;10.73;7.07;;;;;;;10.39;100.00;101431.81;2111728;27;20043;-78
2022/12/25 02:19:03;;;;;;;9.98;6.55;;;;;;;10.39;100.00;101423.00;2096791;28;20044;-78
2022/12/25 02:20:51;;;;;;;10.77;6.13;;;;;;;10.38;100.00;101424.75;2103742;28;20044;-78
2022/12/25 02:22:24;;;;;;;10.27;6.90;;;;;;;10.41;100.00;101423.06;2113877;28;20530;-78
2022/12/25 02:24:33;;;;;;;11.05;7.55;;;;;;;10.46;100.00;101429.34;2107121;28;20483;-78
2022/12/25 02:26:12;;;;;;;10.68;7.40;;;;;;;10.50;100.00;101431.22;2069320;28;20054;-78
2022/12/25 02:28:05;;;;;;;9.77;6.72;;;;;;;10.54;100.00;101426.06;2085412;28;20059;-78
2022/12/25 02:29:32;;;;;;;10.32;6.47;;;;;;;10.58;100.00;101419.09;2104513;28;20067;-78
2022/12/25 02:31:00;;;;;;;9.13;6.75;;;;;;;10.63;100.00;101425.44;2102227;28;20127;-78
2022/12/25 02:32:28;;;;;;;9.63;6.88;;;;;;;10.64;100.00;101417.50;2093919;28;20101;-78
2022/12/25 02:34:05;;;;;;;16.92;7.47;;;;;;;10.64;100.00;101422.78;2100989;28;20546;-78
2022/12/25 02:35:29;;;;;;;10.88;6.97;;;;;;;10.61;100.00;101417.47;2094830;28;20040;-78
2022/12/25 02:36:58;;;;;;;9.50;6.60;;;;;;;10.62;100.00;101421.00;2117665;27;20051;-78
2022/12/25 02:38:24;;;;;;;11.55;7.43;;;;;;;10.61;100.00;101425.38;2088335;28;20056;-78
2022/12/25 02:40:00;;;;;;;9.27;6.28;;;;;;;10.62;100.00;101423.63;2099979;28;20044;-78
2022/12/25 02:41:21;;;;;;;9.55;6.43;;;;;;;10.61;100.00;101417.47;2104556;28;20047;-78
2022/12/25 03:07:07;;;;;;;9.82;6.18;;;;;;;10.19;100.00;101462.03;2104741;28;20123;-78
2022/12/25 03:08:33;;;;;;;8.77;6.05;;;;;;;10.18;100.00;101454.97;2104038;28;20064;-78
2022/12/25 03:11:41;;;;;;;9.50;6.05;;;;;;;10.15;100.00;101439.03;2096968;28;20642;-78
2022/12/25 03:13:10;;;;;;;10.52;6.30;;;;;;;10.14;100.00;101436.34;2111139;28;20503;-77
2022/12/25 03:17:56;;;;;;;9.38;6.38;;;;;;;10.14;100.00;101452.19;2090453;28;20101;-78
2022/12/25 03:27:43;;;;;;;8.93;6.40;;;;;;;10.08;100.00;101460.81;2104612;28;20135;-78
2022/12/25 03:29:06;;;;;;;9.80;5.97;;;;;;;10.05;100.00;101459.81;2104829;28;20063;-78
2022/12/25 03:32:29;;;;;;;8.57;5.90;;;;;;;9.97;100.00;101462.25;2103695;28;20625;-78
2022/12/25 03:36:04;;;;;;;9.93;5.90;;;;;;;9.88;100.00;101464.63;2104856;28;20043;-78
2022/12/25 04:37:28;;;;;;;9.40;7.05;;;;;;;10.02;100.00;101518.69;2094113;28;20140;-78
2022/12/25 04:38:49;;;;;;;10.60;7.45;;;;;;;10.04;100.00;101522.25;2090722;28;20045;-78
2022/12/25 04:40:12;;;;;;;10.40;7.47;;;;;;;10.05;100.00;101523.13;2094351;28;20126;-79
2022/12/25 04:41:34;;;;;;;10.00;6.90;;;;;;;10.05;100.00;101520.47;2100477;28;20044;-78
2022/12/25 04:42:55;;;;;;;9.18;5.90;;;;;;;10.03;100.00;101527.47;2100251;28;20507;-78
2022/12/25 04:44:18;;;;;;;9.45;6.65;;;;;;;9.99;100.00;101524.75;2101891;28;20086;-78
2022/12/25 04:45:39;;;;;;;8.60;5.72;;;;;;;9.96;100.00;101527.31;2109422;28;20059;-78
2022/12/25 04:47:01;;;;;;;8.20;6.47;;;;;;;9.93;100.00;101521.03;2102363;28;20496;-78
2022/12/25 04:48:23;;;;;;;9.77;6.30;;;;;;;9.90;100.00;101519.22;2113439;28;20502;-78
2022/12/25 04:49:47;;;;;;;9.43;6.65;;;;;;;9.89;100.00;101533.25;2106282;28;20036;-78
2022/12/25 04:51:12;;;;;;;9.80;6.50;;;;;;;9.86;100.00;101521.69;2104510;28;20048;-78
2022/12/25 04:52:36;;;;;;;8.93;6.63;;;;;;;9.83;100.00;101524.25;2095727;28;20143;-78
2022/12/25 04:53:57;;;;;;;8.68;6.28;;;;;;;9.82;100.00;101517.16;2111549;28;20523;-78
2022/12/25 04:55:20;;;;;;;9.45;5.82;;;;;;;9.79;100.00;101520.59;2110513;28;20808;-78
2022/12/25 04:56:41;;;;;;;10.48;6.47;;;;;;;9.78;100.00;101521.44;2103691;28;20067;-79
2022/12/25 04:58:03;;;;;;;10.35;6.55;;;;;;;9.76;100.00;101524.91;2109200;28;20052;-78
2022/12/25 04:59:26;;;;;;;9.57;6.03;;;;;;;9.74;100.00;101524.84;2110345;28;20044;-78
2022/12/25 05:00:47;;;;;;;10.98;6.20;;;;;;;9.73;100.00;101522.16;2106159;28;20047;-79
2022/12/25 05:02:09;;;;;;;10.77;6.18;;;;;;;9.73;100.00;101530.06;2103353;28;20044;-78
2022/12/25 05:03:32;;;;;;;9.43;5.82;;;;;;;9.71;100.00;101532.66;2106207;28;20054;-79
2022/12/25 05:04:56;;;;;;;9.10;6.35;;;;;;;9.71;100.00;101531.78;2106025;28;20040;-80
2022/12/25 05:06:18;;;;;;;8.68;5.82;;;;;;;9.71;100.00;101527.41;2104950;28;20073;-78
2022/12/25 05:07:40;;;;;;;9.52;6.38;;;;;;;9.71;100.00;101529.13;2086553;28;20409;-77
2022/12/25 05:09:02;;;;;;;9.55;5.97;;;;;;;9.69;100.00;101533.47;2105656;28;20051;-78
2022/12/25 05:10:25;;;;;;;10.18;7.60;;;;;;;9.70;100.00;101529.97;2105892;28;20538;-78
2022/12/25 05:11:46;;;;;;;11.02;8.25;;;;;;;9.71;100.00;101530.03;2100949;28;20131;-78
2022/12/25 05:13:08;;;;;;;11.02;7.45;;;;;;;9.76;100.00;101530.16;2106039;28;20054;-78
2022/12/25 05:14:30;;;;;;;10.23;7.55;;;;;;;9.83;100.00;101526.88;2101332;28;20048;-78
2022/12/25 05:15:52;;;;;;;12.63;9.35;;;;;;;9.91;100.00;101525.38;2106017;28;20040;-78
2022/12/25 05:17:13;;;;;;;13.25;8.38;;;;;;;9.94;100.00;101526.34;2105440;28;20472;-78
2022/12/25 05:18:36;;;;;;;12.63;8.25;;;;;;;9.98;100.00;101532.59;2103016;28;20126;-78
2022/12/25 05:19:59;;;;;;;9.57;6.13;;;;;;;10.01;100.00;101530.06;2102729;28;20066;-78
2022/12/25 05:21:21;;;;;;;9.88;7.32;;;;;;;10.04;100.00;101534.56;2102613;28;20844;-78
2022/12/25 05:22:44;;;;;;;9.18;6.72;;;;;;;10.04;100.00;101535.44;2096740;28;20109;-78
2022/12/25 05:24:06;;;;;;;9.98;7.30;;;;;;;10.05;100.00;101539.84;2103165;28;20040;-78
2022/12/25 05:25:28;;;;;;;10.52;7.18;;;;;;;10.06;100.00;101538.09;2104361;28;20674;-78
2022/12/25 05:26:49;;;;;;;9.60;6.70;;;;;;;10.08;100.00;101539.06;2111455;28;20096;-78
2022/12/25 05:28:12;;;;;;;12.40;8.98;;;;;;;10.10;100.00;101542.66;2098243;28;20064;-78
2022/12/25 05:29:34;;;;;;;28.20;16.80;;;;;;;10.12;100.00;101547.09;2097453;28;20052;-78
2022/12/25 05:30:56;;;;;;;38.80;23.45;;;;;;;10.17;100.00;101548.19;2111609;28;20046;-79
2022/12/25 05:32:18;;;;;;;29.95;19.02;;;;;;;10.23;100.00;101548.38;2101363;28;20093;-78
2022/12/25 05:33:39;;;;;;;29.75;18.15;;;;;;;10.31;100.00;101538.91;2102999;28;20666;-79
2022/12/25 05:35:03;;;;;;;66.32;39.75;;;;;;;10.39;100.00;101542.66;2102918;28;20048;-78
2022/12/25 05:36:25;;;;;;;39.45;27.67;;;;;;;10.42;100.00;101541.88;2105814;28;20044;-78
2022/12/25 05:37:46;;;;;;;35.10;29.00;;;;;;;10.44;100.00;101541.91;2105698;28;20047;-79
2022/12/25 05:39:09;;;;;;;33.30;27.15;;;;;;;10.43;100.00;101534.84;2103240;28;20059;-78
2022/12/25 05:40:31;;;;;;;20.13;16.33;;;;;;;10.41;100.00;101541.81;2102580;28;20051;-78
2022/12/25 05:41:52;;;;;;;28.08;24.88;;;;;;;10.37;100.00;101549.63;2096044;28;20048;-79
2022/12/25 05:43:14;;;;;;;19.63;17.38;;;;;;;10.35;100.00;101546.09;2098377;28;20040;-79
2022/12/25 05:44:36;;;;;;;18.25;16.25;;;;;;;10.38;100.00;101547.91;2103278;28;20073;-79
2022/12/25 05:45:59;;;;;;;21.58;17.42;;;;;;;10.39;100.00;101545.31;2094497;28;20060;-78
2022/12/25 05:47:20;;;;;;;19.52;16.58;;;;;;;10.41;100.00;101540.09;2100827;28;20067;-78
2022/12/25 05:48:42;;;;;;;15.93;12.48;;;;;;;10.43;100.00;101545.41;2102755;28;20077;-79
2022/12/25 05:50:07;;;;;;;13.05;10.45;;;;;;;10.44;100.00;101549.81;2094439;28;20053;-79
2022/12/25 05:51:29;;;;;;;10.77;8.02;;;;;;;10.45;100.00;101546.34;2101052;28;20512;-78
2022/12/25 05:52:50;;;;;;;10.82;7.47;;;;;;;10.44;100.00;101555.09;2103163;28;20162;-78
2022/12/25 05:54:13;;;;;;;10.98;8.00;;;;;;;10.42;100.00;101551.53;2102687;28;20071;-78
2022/12/25 05:55:35;;;;;;;11.05;7.95;;;;;;;10.42;100.00;101544.50;2102146;28;20174;-78
2022/12/25 05:56:57;;;;;;;11.57;8.30;;;;;;;10.43;100.00;101548.94;2097390;28;20475;-78
2022/12/25 05:58:18;;;;;;;10.73;8.57;;;;;;;10.47;100.00;101552.56;2100073;28;20059;-78
2022/12/25 05:59:41;;;;;;;13.02;9.32;;;;;;;10.49;100.00;101554.41;2102899;28;20036;-78
2022/12/25 06:01:03;;;;;;;9.48;6.40;;;;;;;10.48;100.00;101551.72;2097278;28;20052;-79
2022/12/25 06:02:25;;;;;;;;;;;;;;;10.38;100.00;101547.91;2103154;28;20114;-78
2022/12/25 06:03:48;;;;;;;8.20;5.72;;;;;;;10.36;100.00;101552.25;2102760;28;19920;-78
2022/12/25 06:05:10;;;;;;;8.32;6.00;;;;;;;10.34;100.00;101548.66;2094633;28;20052;-78
2022/12/25 06:06:33;;;;;;;9.77;6.63;;;;;;;10.34;100.00;101559.22;2094283;28;20053;-78
2022/12/25 06:07:56;;;;;;;11.18;6.20;;;;;;;10.33;100.00;101566.25;2100330;28;20036;-79
2022/12/25 06:09:17;;;;;;;8.63;5.70;;;;;;;10.33;100.00;101560.97;2096839;28;20056;-78
2022/12/25 06:10:40;;;;;;;9.32;6.28;;;;;;;10.33;100.00;101558.34;2100010;28;20032;-78
2022/12/25 06:12:02;;;;;;;9.20;6.45;;;;;;;10.34;100.00;101565.41;2089700;28;20061;-77
2022/12/25 06:13:24;;;;;;;10.23;7.15;;;;;;;10.37;100.00;101564.63;2102892;28;20106;-78
2022/12/25 06:14:46;;;;;;;12.40;8.10;;;;;;;10.39;100.00;101565.53;2101591;28;20044;-78
2022/12/25 06:16:10;;;;;;;12.40;8.52;;;;;;;10.41;100.00;101563.84;2086207;28;20609;-78
2022/12/25 06:17:31;;;;;;;18.77;12.65;;;;;;;10.44;100.00;101565.66;2092110;28;20055;-77
2022/12/25 06:18:54;;;;;;;13.38;9.68;;;;;;;10.46;100.00;101566.59;2102785;28;20131;-78
2022/12/25 06:20:17;;;;;;;12.38;9.25;;;;;;;10.48;100.00;101564.91;2080645;28;20091;-77
2022/12/25 06:21:40;;;;;;;13.38;10.00;;;;;;;10.47;100.00;101571.94;2087155;28;20033;-78
2022/12/25 06:23:01;;;;;;;17.17;12.98;;;;;;;10.49;100.00;101569.34;2102983;28;20557;-78
2022/12/25 06:24:24;;;;;;;17.45;13.50;;;;;;;10.48;100.00;101578.09;2105445;28;20139;-78
2022/12/25 06:25:45;;;;;;;15.73;12.27;;;;;;;10.48;100.00;101572.81;2088712;28;20533;-78
2022/12/25 06:27:07;;;;;;;15.98;13.07;;;;;;;10.47;100.00;101579.84;2091745;28;20067;-78
2022/12/25 06:28:28;;;;;;;15.30;11.35;;;;;;;10.48;100.00;101573.72;2102862;28;20051;-77
2022/12/25 06:29:51;;;;;;;12.75;9.48;;;;;;;10.48;100.00;101579.00;2105411;28;20659;-78
2022/12/25 06:31:18;;;;;;;11.55;9.30;;;;;;;10.48;100.00;101578.09;2098379;28;20040;-78
2022/12/25 06:32:39;;;;;;;13.05;9.93;;;;;;;10.50;100.00;101579.06;2109664;28;20048;-78
2022/12/25 06:34:02;;;;;;;14.40;10.55;;;;;;;10.53;100.00;101585.31;2105165;28;20110;-78
2022/12/25 06:35:24;;;;;;;11.48;8.38;;;;;;;10.60;100.00;101589.91;2111420;28;20507;-77
2022/12/25 06:36:46;;;;;;;14.32;9.43;;;;;;;10.67;100.00;101583.97;2104754;28;20526;-78
2022/12/25 06:38:09;;;;;;;12.38;8.90;;;;;;;10.79;100.00;101588.69;2104797;28;20051;-77
2022/12/25 06:39:31;;;;;;;13.20;10.63;;;;;;;10.93;100.00;101591.72;2102860;28;20074;-78
2022/12/25 06:40:53;;;;;;;18.55;13.85;;;;;;;11.03;100.00;101583.16;2094370;28;20049;-77
2022/12/25 06:42:15;;;;;;;20.98;17.55;;;;;;;11.09;100.00;101589.50;2090416;28;20153;-79
2022/12/25 06:43:37;;;;;;;25.38;22.83;;;;;;;11.13;100.00;101594.03;2100081;28;20047;-78
2022/12/25 06:44:59;;;;;;;17.42;14.85;;;;;;;11.16;100.00;101601.13;2101851;28;20048;-77
2022/12/25 06:46:22;;;;;;;24.08;21.40;;;;;;;11.18;100.00;101594.16;2103636;28;20039;-78
2022/12/25 06:47:45;;;;;;;26.77;23.98;;;;;;;11.21;100.00;101590.72;2093390;28;20051;-78
2022/12/25 06:49:06;;;;;;;15.25;13.65;;;;;;;11.25;100.00;101592.56;2094196;28;20059;-78
2022/12/25 06:50:31;;;;;;;15.93;14.10;;;;;;;11.33;100.00;101591.91;2099751;28;20055;-77
2022/12/25 06:51:54;;;;;;;9.82;7.75;;;;;;;11.47;100.00;101590.53;2102464;28;20125;-78
2022/12/25 06:53:15;;;;;;;9.82;8.00;;;;;;;11.63;100.00;101589.13;2108953;27;20047;-77
2022/12/25 06:54:38;;;;;;;9.45;7.65;;;;;;;11.78;100.00;101589.53;2105045;28;20571;-79
2022/12/25 06:56:02;;;;;;;10.38;7.30;;;;;;;11.94;100.00;101585.53;2102733;28;20048;-78
2022/12/25 06:57:25;;;;;;;9.75;7.10;;;;;;;12.09;100.00;101582.31;2091299;28;20135;-78
2022/12/25 06:58:48;;;;;;;10.40;7.80;;;;;;;12.25;100.00;101587.09;2096272;28;20071;-78
2022/12/25 07:00:12;;;;;;;9.52;6.70;;;;;;;12.40;100.00;101583.91;2099849;28;20506;-77
2022/12/25 07:01:38;;;;;;;8.15;5.85;;;;;;;12.51;100.00;101582.34;2102397;28;20148;-78
2022/12/25 07:03:00;;;;;;;8.63;5.70;;;;;;;12.54;100.00;101587.69;2096267;28;20040;-78
2022/12/25 07:04:30;;;;;;;7.43;5.45;;;;;;;12.54;100.00;101593.91;2096638;28;20052;-78
2022/12/25 07:05:54;;;;;;;8.13;6.00;;;;;;;12.49;100.00;101594.66;2103104;28;20047;-78
2022/12/25 07:07:16;;;;;;;9.07;6.07;;;;;;;12.43;100.00;101598.09;2101960;28;20086;-78
2022/12/25 07:08:38;;;;;;;8.30;5.97;;;;;;;12.38;100.00;101594.44;2100952;28;20052;-78
2022/12/25 07:10:00;;;;;;;8.77;6.55;;;;;;;12.32;100.00;101603.16;2095385;28;20557;-78
2022/12/25 07:11:24;;;;;;;8.25;5.70;;;;;;;12.36;100.00;101601.47;2093986;28;20041;-77
2022/12/25 07:12:45;;;;;;;11.20;6.68;;;;;;;12.41;100.00;101599.78;2094123;28;20048;-78
2022/12/25 07:14:07;;;;;;;9.43;7.43;;;;;;;12.49;100.00;101595.56;2093639;28;20041;-78
2022/12/25 07:15:28;;;;;;;12.23;8.38;;;;;;;12.57;100.00;101604.56;2093750;28;20059;-78
2022/12/25 07:16:51;;;;;;;13.57;11.13;;;;;;;12.68;100.00;101604.78;2099357;28;20369;-78
2022/12/25 07:18:12;;;;;;;14.52;10.18;;;;;;;12.93;100.00;101604.41;2093730;28;20051;-77
2022/12/25 07:19:35;;;;;;;11.88;9.43;;;;;;;13.16;100.00;101604.88;2102062;28;20504;-78
2022/12/25 07:20:58;;;;;;;9.85;6.97;;;;;;;13.28;100.00;101607.75;2101996;28;20102;-78
2022/12/25 07:22:20;;;;;;;11.13;7.38;;;;;;;13.35;100.00;101614.06;2104729;28;20136;-78
2022/12/25 07:23:45;;;;;;;10.70;7.65;;;;;;;13.42;100.00;101610.66;2096601;28;20053;-77
2022/12/25 07:25:07;;;;;;;13.18;9.23;;;;;;;13.53;100.00;101599.34;2101809;28;20036;-77
2022/12/25 07:26:29;;;;;;;6.57;4.75;;;;;;;13.66;100.00;101599.56;2093343;28;20717;-77
2022/12/25 07:27:51;;;;;;;8.82;5.75;;;;;;;13.77;100.00;101608.63;2096990;28;20044;-77
2022/12/25 07:29:14;;;;;;;7.60;4.80;;;;;;;13.96;100.00;101598.31;2105741;28;20132;-78
2022/12/25 07:30:36;;;;;;;5.85;4.10;;;;;;;14.23;100.00;101605.78;2093499;28;20040;-77
2022/12/25 07:31:59;;;;;;;9.85;4.68;;;;;;;14.49;100.00;101599.97;2091664;28;20048;-78
2022/12/25 07:33:20;;;;;;;6.05;4.15;;;;;;;14.66;100.00;101603.72;2101929;28;20043;-77
2022/12/25 07:34:42;;;;;;;8.02;4.10;;;;;;;14.70;100.00;101605.56;2096147;28;20040;-77
2022/12/25 07:36:06;;;;;;;6.68;3.63;;;;;;;14.70;100.00;101602.91;2093709;28;20452;-78
2022/12/25 07:37:28;;;;;;;5.88;3.80;;;;;;;14.68;100.00;101601.97;2102548;28;20044;-78
2022/12/25 07:38:50;;;;;;;6.55;3.83;;;;;;;14.68;100.00;101607.28;2101297;28;20039;-78
2022/12/25 07:40:13;;;;;;;6.93;4.10;;;;;;;14.72;100.00;101607.34;2111485;28;20441;-77
2022/12/25 07:41:36;;;;;;;6.57;4.28;;;;;;;14.86;100.00;101604.84;2085631;28;20044;-78
2022/12/25 07:43:09;;;;;;;9.85;6.65;;;;;;;15.04;100.00;101607.69;2094349;28;20105;-78
2022/12/25 07:44:31;;;;;;;7.68;5.07;;;;;;;15.23;100.00;101611.44;2093911;28;20040;-79
2022/12/25 07:45:55;;;;;;;6.55;4.43;;;;;;;15.40;100.00;101606.31;2101019;28;20044;-78
2022/12/25 07:47:18;;;;;;;7.00;4.25;;;;;;;15.43;100.00;101606.31;2094210;28;20052;-78
2022/12/25 07:48:40;;;;;;;7.82;4.53;;;;;;;15.43;100.00;101607.22;2108851;28;20101;-78
2022/12/25 07:50:03;;;;;;;6.63;4.00;;;;;;;15.47;100.00;101602.84;2101395;28;20051;-78
2022/12/25 07:51:28;;;;;;;6.93;4.47;;;;;;;15.57;100.00;101617.13;2095353;28;20527;-78
2022/12/25 07:52:51;;;;;;;7.60;4.05;;;;;;;15.61;100.00;101609.19;2102018;28;20063;-78
2022/12/25 07:54:13;;;;;;;7.30;4.43;;;;;;;15.72;100.00;101611.94;2101591;28;20035;-77
2022/12/25 07:55:35;;;;;;;7.50;4.40;;;;;;;15.81;100.00;101618.25;2089133;28;20106;-78
2022/12/25 07:56:57;;;;;;;6.72;4.53;;;;;;;15.83;100.00;101610.25;2099297;28;20048;-77
2022/12/25 07:58:18;;;;;;;6.28;4.38;;;;;;;15.80;100.00;101608.47;2098170;28;20070;-77
2022/12/25 07:59:41;;;;;;;6.20;3.92;;;;;;;15.73;100.00;101611.97;2101729;28;20052;-78
2022/12/25 08:01:05;;;;;;;5.72;3.97;;;;;;;15.65;100.00;101616.31;2097924;28;20048;-78
2022/12/25 08:02:28;;;;;;;7.57;4.90;;;;;;;15.53;100.00;101621.53;2100902;28;20966;-78
2022/12/25 08:03:49;;;;;;;7.95;5.22;;;;;;;15.42;100.00;101624.09;2109211;28;20063;-77
2022/12/25 08:05:12;;;;;;;;;;;;;;;15.27;100.00;101621.25;2085144;28;20122;-77
2022/12/25 08:06:36;;;;;;;8.52;5.97;;;;;;;15.21;100.00;101622.97;2099469;28;19920;-77
2022/12/25 08:07:59;;;;;;;8.27;5.80;;;;;;;15.10;100.00;101623.72;2091826;28;20099;-77